sensor_id;sensor_type;location;lat;lon;timestamp;pressure;altitude;pressure_sealevel;temperature;humidity
24620;BME280;12763;55.802;37.404;2022-10-01T00:00:58;99559.06;;;16.99;98.14
24620;BME280;12763;55.802;37.404;2022-10-01T00:03:26;99562.41;;;17.01;98.22
24620;BME280;12763;55.802;37.404;2022-10-01T00:06:04;99557.19;;;17.05;98.05
24620;BME280;12763;55.802;37.404;2022-10-01T00:08:31;99558.88;;;17.06;98.03
24620;BME280;12763;55.802;37.404;2022-10-01T00:10:58;99554.31;;;17.00;97.56
24620;BME280;12763;55.802;37.404;2022-10-01T00:13:28;99561.50;;;16.96;97.96
24620;BME280;12763;55.802;37.404;2022-10-01T00:15:55;99560.41;;;16.97;97.48
24620;BME280;12763;55.802;37.404;2022-10-01T00:18:22;99566.00;;;16.97;97.58
24620;BME280;12763;55.802;37.404;2022-10-01T00:20:50;99559.56;;;16.96;97.61
24620;BME280;12763;55.802;37.404;2022-10-01T00:23:19;99559.91;;;17.00;97.66
24620;BME280;12763;55.802;37.404;2022-10-01T00:25:50;99554.84;;;16.97;98.06
24620;BME280;12763;55.802;37.404;2022-10-01T00:28:17;99558.22;;;16.99;97.91
24620;BME280;12763;55.802;37.404;2022-10-01T00:30:46;99561.91;;;17.04;97.65
24620;BME280;12763;55.802;37.404;2022-10-01T00:33:25;99550.22;;;17.08;97.67
24620;BME280;12763;55.802;37.404;2022-10-01T00:35:53;99555.47;;;17.04;97.32
24620;BME280;12763;55.802;37.404;2022-10-01T00:38:19;99538.19;;;17.02;97.56
24620;BME280;12763;55.802;37.404;2022-10-01T00:40:45;99546.75;;;16.95;98.05
24620;BME280;12763;55.802;37.404;2022-10-01T00:43:22;99549.28;;;16.97;97.99
24620;BME280;12763;55.802;37.404;2022-10-01T00:45:49;99539.31;;;17.01;97.44
24620;BME280;12763;55.802;37.404;2022-10-01T00:48:16;99549.31;;;17.02;97.60
24620;BME280;12763;55.802;37.404;2022-10-01T00:50:43;99543.50;;;17.03;97.95
24620;BME280;12763;55.802;37.404;2022-10-01T00:53:14;99548.63;;;16.90;98.51
24620;BME280;12763;55.802;37.404;2022-10-01T00:55:51;99543.88;;;16.90;98.86
24620;BME280;12763;55.802;37.404;2022-10-01T00:58:21;99546.75;;;16.95;98.59
24620;BME280;12763;55.802;37.404;2022-10-01T01:00:49;99549.28;;;16.97;98.46
24620;BME280;12763;55.802;37.404;2022-10-01T01:03:19;99543.38;;;16.93;97.85
24620;BME280;12763;55.802;37.404;2022-10-01T01:05:45;99551.47;;;16.95;97.75
24620;BME280;12763;55.802;37.404;2022-10-01T01:08:13;99553.47;;;16.99;97.41
24620;BME280;12763;55.802;37.404;2022-10-01T01:11:02;99545.44;;;17.03;97.37
24620;BME280;12763;55.802;37.404;2022-10-01T01:14:02;99537.59;;;17.00;97.51
24620;BME280;12763;55.802;37.404;2022-10-01T01:16:40;99537.03;;;16.98;97.31
24620;BME280;12763;55.802;37.404;2022-10-01T01:19:25;99548.25;;;16.81;98.46
24620;BME280;12763;55.802;37.404;2022-10-01T01:21:59;99539.16;;;16.91;97.70
24620;BME280;12763;55.802;37.404;2022-10-01T01:29:54;99539.16;;;16.91;97.83
24620;BME280;12763;55.802;37.404;2022-10-01T01:32:45;99532.44;;;16.87;97.68
24620;BME280;12763;55.802;37.404;2022-10-01T01:35:22;99539.38;;;16.84;97.55
24620;BME280;12763;55.802;37.404;2022-10-01T01:37:55;99534.09;;;16.88;97.87
24620;BME280;12763;55.802;37.404;2022-10-01T01:40:30;99527.50;;;16.94;97.66
24620;BME280;12763;55.802;37.404;2022-10-01T01:43:03;99535.59;;;16.74;98.21
24620;BME280;12763;55.802;37.404;2022-10-01T01:45:35;99534.44;;;16.70;98.37
24620;BME280;12763;55.802;37.404;2022-10-01T01:48:07;99531.81;;;16.85;97.89
24620;BME280;12763;55.802;37.404;2022-10-01T01:50:43;99526.34;;;16.90;97.35
24620;BME280;12763;55.802;37.404;2022-10-01T01:53:16;99529.66;;;16.87;97.13
24620;BME280;12763;55.802;37.404;2022-10-01T01:55:43;99534.03;;;16.83;97.55
24620;BME280;12763;55.802;37.404;2022-10-01T01:58:11;99534.50;;;16.75;97.49
24620;BME280;12763;55.802;37.404;2022-10-01T02:00:38;99531.06;;;16.68;97.94
24620;BME280;12763;55.802;37.404;2022-10-01T02:03:04;99529.56;;;16.82;97.75
24620;BME280;12763;55.802;37.404;2022-10-01T02:05:42;99529.25;;;16.78;97.51
24620;BME280;12763;55.802;37.404;2022-10-01T02:16:33;99525.34;;;16.79;97.24
24620;BME280;12763;55.802;37.404;2022-10-01T02:19:26;99521.66;;;16.74;97.10
24620;BME280;12763;55.802;37.404;2022-10-01T02:21:59;99521.47;;;16.59;97.54
24620;BME280;12763;55.802;37.404;2022-10-01T02:24:54;99515.16;;;16.68;97.33
24620;BME280;12763;55.802;37.404;2022-10-01T02:27:46;99511.56;;;16.68;97.04
24620;BME280;12763;55.802;37.404;2022-10-01T02:30:13;99512.09;;;16.65;97.00
24620;BME280;12763;55.802;37.404;2022-10-01T02:32:48;99509.34;;;16.70;97.27
24620;BME280;12763;55.802;37.404;2022-10-01T02:35:19;99507.66;;;16.69;97.24
24620;BME280;12763;55.802;37.404;2022-10-01T02:37:49;99497.03;;;16.66;97.22
24620;BME280;12763;55.802;37.404;2022-10-01T02:40:18;99498.41;;;16.63;97.54
24620;BME280;12763;55.802;37.404;2022-10-01T02:42:52;99504.81;;;16.64;97.50
24620;BME280;12763;55.802;37.404;2022-10-01T02:45:22;99483.63;;;16.63;97.41
24620;BME280;12763;55.802;37.404;2022-10-01T02:47:53;99496.41;;;16.59;97.51
24620;BME280;12763;55.802;37.404;2022-10-01T02:50:23;99489.66;;;16.55;97.99
24620;BME280;12763;55.802;37.404;2022-10-01T02:52:52;99483.03;;;16.61;97.25
24620;BME280;12763;55.802;37.404;2022-10-01T02:55:30;99490.31;;;16.62;97.46
24620;BME280;12763;55.802;37.404;2022-10-01T02:57:58;99490.81;;;16.59;97.34
24620;BME280;12763;55.802;37.404;2022-10-01T03:00:24;99480.59;;;16.64;97.55
24620;BME280;12763;55.802;37.404;2022-10-01T03:02:52;99481.03;;;16.56;97.81
24620;BME280;12763;55.802;37.404;2022-10-01T03:05:18;99471.91;;;16.61;97.63
24620;BME280;12763;55.802;37.404;2022-10-01T03:07:47;99483.91;;;16.61;97.43
24620;BME280;12763;55.802;37.404;2022-10-01T03:10:13;99486.09;;;16.59;97.66
24620;BME280;12763;55.802;37.404;2022-10-01T03:12:41;99486.63;;;16.56;97.58
24620;BME280;12763;55.802;37.404;2022-10-01T03:15:09;99481.91;;;16.57;97.75
24620;BME280;12763;55.802;37.404;2022-10-01T03:17:35;99484.06;;;16.55;97.89
24620;BME280;12763;55.802;37.404;2022-10-01T03:20:02;99481.91;;;16.57;97.58
24620;BME280;12763;55.802;37.404;2022-10-01T03:22:31;99484.41;;;16.58;97.72
24620;BME280;12763;55.802;37.404;2022-10-01T03:24:58;99477.41;;;16.56;97.47
24620;BME280;12763;55.802;37.404;2022-10-01T03:27:24;99480.19;;;16.56;97.39
24620;BME280;12763;55.802;37.404;2022-10-01T03:29:50;99482.47;;;16.59;97.65
24620;BME280;12763;55.802;37.404;2022-10-01T03:32:17;99466.31;;;16.61;97.44
24620;BME280;12763;55.802;37.404;2022-10-01T03:34:47;99481.09;;;16.61;97.56
24620;BME280;12763;55.802;37.404;2022-10-01T03:37:16;99477.13;;;16.57;97.54
24620;BME280;12763;55.802;37.404;2022-10-01T03:39:45;99468.53;;;16.59;97.54
24620;BME280;12763;55.802;37.404;2022-10-01T03:42:15;99470.81;;;16.62;97.30
24620;BME280;12763;55.802;37.404;2022-10-01T03:44:44;99469.69;;;16.63;97.43
24620;BME280;12763;55.802;37.404;2022-10-01T03:47:16;99467.44;;;16.60;97.41
24620;BME280;12763;55.802;37.404;2022-10-01T03:49:45;99468.53;;;16.59;97.34
24620;BME280;12763;55.802;37.404;2022-10-01T03:52:11;99473.84;;;16.60;97.78
24620;BME280;12763;55.802;37.404;2022-10-01T03:54:37;99469.13;;;16.61;97.69
24620;BME280;12763;55.802;37.404;2022-10-01T03:57:04;99456.31;;;16.60;97.83
24620;BME280;12763;55.802;37.404;2022-10-01T03:59:36;99459.09;;;16.60;98.05
24620;BME280;12763;55.802;37.404;2022-10-01T04:02:05;99460.25;;;16.64;97.96
24620;BME280;12763;55.802;37.404;2022-10-01T04:04:35;99470.25;;;16.60;97.80
24620;BME280;12763;55.802;37.404;2022-10-01T04:07:04;99460.25;;;16.64;97.38
24620;BME280;12763;55.802;37.404;2022-10-01T04:09:30;99462.69;;;16.60;97.47
24620;BME280;12763;55.802;37.404;2022-10-01T04:12:00;99463.31;;;16.62;97.42
24620;BME280;12763;55.802;37.404;2022-10-01T04:14:27;99461.09;;;16.64;97.45
24620;BME280;12763;55.802;37.404;2022-10-01T04:16:53;99456.38;;;16.65;97.35
24620;BME280;12763;55.802;37.404;2022-10-01T04:19:19;99464.91;;;16.58;97.65
24620;BME280;12763;55.802;37.404;2022-10-01T04:21:46;99464.97;;;16.63;97.11
24620;BME280;12763;55.802;37.404;2022-10-01T04:24:12;99460.53;;;16.62;97.38
24620;BME280;12763;55.802;37.404;2022-10-01T04:26:42;99461.94;;;16.65;97.32
24620;BME280;12763;55.802;37.404;2022-10-01T04:29:08;99470.03;;;16.66;97.36
24620;BME280;12763;55.802;37.404;2022-10-01T04:31:35;99469.69;;;16.63;97.90
24620;BME280;12763;55.802;37.404;2022-10-01T04:34:02;99459.72;;;16.67;97.38
24620;BME280;12763;55.802;37.404;2022-10-01T04:36:29;99474.50;;;16.67;97.32
24620;BME280;12763;55.802;37.404;2022-10-01T04:38:57;99466.16;;;16.67;97.29
24620;BME280;12763;55.802;37.404;2022-10-01T04:41:23;99463.38;;;16.67;97.20
24620;BME280;12763;55.802;37.404;2022-10-01T04:43:50;99468.66;;;16.69;97.19
24620;BME280;12763;55.802;37.404;2022-10-01T04:46:22;99460.25;;;16.64;97.57
24620;BME280;12763;55.802;37.404;2022-10-01T04:48:50;99458.88;;;16.66;97.20
24620;BME280;12763;55.802;37.404;2022-10-01T04:51:16;99455.28;;;16.71;96.88
24620;BME280;12763;55.802;37.404;2022-10-01T04:53:43;99467.06;;;16.73;96.84
24620;BME280;12763;55.802;37.404;2022-10-01T04:56:13;99444.75;;;16.73;96.80
24620;BME280;12763;55.802;37.404;2022-10-01T04:58:39;99446.69;;;16.72;96.89
24620;BME280;12763;55.802;37.404;2022-10-01T05:01:06;99454.16;;;16.67;96.71
24620;BME280;12763;55.802;37.404;2022-10-01T05:03:32;99455.28;;;16.71;96.72
24620;BME280;12763;55.802;37.404;2022-10-01T05:06:04;99461.47;;;16.73;96.53
24620;BME280;12763;55.802;37.404;2022-10-01T05:08:36;99451.69;;;16.70;96.63
24620;BME280;12763;55.802;37.404;2022-10-01T05:11:03;99458.09;;;16.71;96.43
24620;BME280;12763;55.802;37.404;2022-10-01T05:13:29;99460.88;;;16.71;96.41
24620;BME280;12763;55.802;37.404;2022-10-01T05:15:57;99465.13;;;16.73;96.58
24620;BME280;12763;55.802;37.404;2022-10-01T05:18:23;99463.66;;;16.71;96.59
24620;BME280;12763;55.802;37.404;2022-10-01T05:20:50;99460.88;;;16.71;96.40
24620;BME280;12763;55.802;37.404;2022-10-01T05:23:16;99467.28;;;16.71;96.76
24620;BME280;12763;55.802;37.404;2022-10-01T05:25:45;99466.44;;;16.71;96.64
24620;BME280;12763;55.802;37.404;2022-10-01T05:28:15;99461.72;;;16.71;96.80
24620;BME280;12763;55.802;37.404;2022-10-01T05:30:44;99452.50;;;16.71;96.92
24620;BME280;12763;55.802;37.404;2022-10-01T05:33:10;99450.56;;;16.71;96.94
24620;BME280;12763;55.802;37.404;2022-10-01T05:35:37;99453.13;;;16.73;96.95
24620;BME280;12763;55.802;37.404;2022-10-01T05:38:05;99452.84;;;16.74;97.07
24620;BME280;12763;55.802;37.404;2022-10-01T05:40:32;99449.22;;;16.74;97.17
24620;BME280;12763;55.802;37.404;2022-10-01T05:42:59;99433.91;;;16.76;96.98
24620;BME280;12763;55.802;37.404;2022-10-01T05:45:30;99437.53;;;16.77;97.23
24620;BME280;12763;55.802;37.404;2022-10-01T05:48:06;99442.59;;;16.80;97.49
24620;BME280;12763;55.802;37.404;2022-10-01T05:50:38;99434.00;;;16.81;97.22
24620;BME280;12763;55.802;37.404;2022-10-01T05:53:10;99434.00;;;16.81;96.97
24620;BME280;12763;55.802;37.404;2022-10-01T05:55:37;99434.50;;;16.78;97.26
24620;BME280;12763;55.802;37.404;2022-10-01T05:58:05;99429.00;;;16.83;97.14
24620;BME280;12763;55.802;37.404;2022-10-01T06:00:32;99428.72;;;16.85;97.22
24620;BME280;12763;55.802;37.404;2022-10-01T06:03:00;99431.25;;;16.86;97.30
24620;BME280;12763;55.802;37.404;2022-10-01T06:05:28;99428.19;;;16.88;97.15
24620;BME280;12763;55.802;37.404;2022-10-01T06:07:55;99416.81;;;16.89;97.27
24620;BME280;12763;55.802;37.404;2022-10-01T06:10:23;99425.41;;;16.88;97.61
24620;BME280;12763;55.802;37.404;2022-10-01T06:12:50;99420.44;;;16.90;97.48
24620;BME280;12763;55.802;37.404;2022-10-01T06:15:16;99417.09;;;16.93;97.15
24620;BME280;12763;55.802;37.404;2022-10-01T06:17:43;99417.69;;;16.95;97.17
24620;BME280;12763;55.802;37.404;2022-10-01T06:20:15;99415.75;;;16.95;97.28
24620;BME280;12763;55.802;37.404;2022-10-01T06:22:42;99417.69;;;16.95;97.15
24620;BME280;12763;55.802;37.404;2022-10-01T06:25:10;99420.72;;;16.93;97.50
24620;BME280;12763;55.802;37.404;2022-10-01T06:27:37;99416.53;;;16.91;97.28
24620;BME280;12763;55.802;37.404;2022-10-01T06:30:05;99410.09;;;16.90;97.34
24620;BME280;12763;55.802;37.404;2022-10-01T06:32:31;99415.97;;;16.89;97.58
24620;BME280;12763;55.802;37.404;2022-10-01T06:34:57;99413.66;;;16.81;98.24
24620;BME280;12763;55.802;37.404;2022-10-01T06:37:23;99414.69;;;16.75;98.32
24620;BME280;12763;55.802;37.404;2022-10-01T06:39:52;99406.59;;;16.73;98.50
24620;BME280;12763;55.802;37.404;2022-10-01T06:42:18;99410.34;;;16.84;97.79
24620;BME280;12763;55.802;37.404;2022-10-01T06:44:48;99403.13;;;16.88;97.71
24620;BME280;12763;55.802;37.404;2022-10-01T06:47:14;99402.53;;;16.86;98.01
24620;BME280;12763;55.802;37.404;2022-10-01T06:49:43;99400.56;;;16.81;98.41
24620;BME280;12763;55.802;37.404;2022-10-01T06:52:09;99406.38;;;16.80;98.55
24620;BME280;12763;55.802;37.404;2022-10-01T06:54:54;99404.97;;;16.77;99.00
24620;BME280;12763;55.802;37.404;2022-10-01T06:57:22;99396.13;;;16.85;98.63
24620;BME280;12763;55.802;37.404;2022-10-01T06:59:48;99402.81;;;16.84;98.78
24620;BME280;12763;55.802;37.404;2022-10-01T07:02:24;99392.00;;;16.93;98.90
24620;BME280;12763;55.802;37.404;2022-10-01T07:04:55;99392.28;;;16.91;98.93
24620;BME280;12763;55.802;37.404;2022-10-01T07:07:35;99392.28;;;16.91;99.08
24620;BME280;12763;55.802;37.404;2022-10-01T07:10:03;99385.91;;;16.96;98.88
24620;BME280;12763;55.802;37.404;2022-10-01T07:12:30;99386.56;;;17.03;99.03
24620;BME280;12763;55.802;37.404;2022-10-01T07:14:59;99379.75;;;17.21;98.58
24620;BME280;12763;55.802;37.404;2022-10-01T07:17:29;99377.84;;;17.26;98.71
24620;BME280;12763;55.802;37.404;2022-10-01T07:20:01;99377.63;;;17.33;98.15
24620;BME280;12763;55.802;37.404;2022-10-01T07:22:29;99373.13;;;17.32;98.15
24620;BME280;12763;55.802;37.404;2022-10-01T07:24:58;99376.41;;;17.24;98.44
24620;BME280;12763;55.802;37.404;2022-10-01T07:27:24;99375.41;;;17.35;98.17
24620;BME280;12763;55.802;37.404;2022-10-01T07:29:50;99372.41;;;17.41;97.91
24620;BME280;12763;55.802;37.404;2022-10-01T07:32:37;99375.25;;;17.51;98.09
24620;BME280;12763;55.802;37.404;2022-10-01T07:35:04;99370.72;;;17.45;98.06
24620;BME280;12763;55.802;37.404;2022-10-01T07:37:33;99369.03;;;17.39;98.28
24620;BME280;12763;55.802;37.404;2022-10-01T07:39:59;99366.13;;;17.24;99.16
24620;BME280;12763;55.802;37.404;2022-10-01T07:42:26;99363.00;;;17.21;99.27
24620;BME280;12763;55.802;37.404;2022-10-01T07:44:52;99367.31;;;17.33;98.81
24620;BME280;12763;55.802;37.404;2022-10-01T07:47:23;99361.25;;;17.41;98.54
24620;BME280;12763;55.802;37.404;2022-10-01T07:49:49;99363.25;;;17.51;98.36
24620;BME280;12763;55.802;37.404;2022-10-01T07:52:19;99361.94;;;17.53;98.68
24620;BME280;12763;55.802;37.404;2022-10-01T07:54:48;99360.44;;;17.46;99.02
24620;BME280;12763;55.802;37.404;2022-10-01T07:57:17;99352.47;;;17.59;98.53
24620;BME280;12763;55.802;37.404;2022-10-01T07:59:44;99346.09;;;17.64;98.32
24620;BME280;12763;55.802;37.404;2022-10-01T08:02:14;99335.28;;;17.78;98.19
24620;BME280;12763;55.802;37.404;2022-10-01T08:04:41;99340.91;;;17.83;98.01
24620;BME280;12763;55.802;37.404;2022-10-01T08:07:27;99338.97;;;17.88;97.45
24620;BME280;12763;55.802;37.404;2022-10-01T08:09:55;99334.53;;;17.92;97.35
24620;BME280;12763;55.802;37.404;2022-10-01T08:12:43;99330.94;;;17.97;97.25
24620;BME280;12763;55.802;37.404;2022-10-01T08:15:14;99325.94;;;18.04;96.86
24620;BME280;12763;55.802;37.404;2022-10-01T08:17:44;99319.91;;;18.27;96.90
24620;BME280;12763;55.802;37.404;2022-10-01T08:20:12;99321.28;;;18.25;96.34
24620;BME280;12763;55.802;37.404;2022-10-01T08:22:42;99315.41;;;18.21;96.21
24620;BME280;12763;55.802;37.404;2022-10-01T08:25:12;99311.16;;;18.08;96.52
24620;BME280;12763;55.802;37.404;2022-10-01T08:27:39;99315.63;;;18.14;96.58
24620;BME280;12763;55.802;37.404;2022-10-01T08:30:09;99313.69;;;18.15;96.38
24620;BME280;12763;55.802;37.404;2022-10-01T08:32:35;99310.91;;;18.15;96.29
24620;BME280;12763;55.802;37.404;2022-10-01T08:35:02;99315.41;;;18.21;96.43
24620;BME280;12763;55.802;37.404;2022-10-01T08:37:30;99308.44;;;18.24;96.16
24620;BME280;12763;55.802;37.404;2022-10-01T08:39:58;99302.84;;;18.29;96.46
24620;BME280;12763;55.802;37.404;2022-10-01T08:45:39;99293.22;;;18.71;95.70
24620;BME280;12763;55.802;37.404;2022-10-01T08:48:28;99290.16;;;18.93;94.95
24620;BME280;12763;55.802;37.404;2022-10-01T08:51:00;99277.31;;;19.02;94.43
24620;BME280;12763;55.802;37.404;2022-10-01T08:53:42;99278.13;;;19.03;94.03
24620;BME280;12763;55.802;37.404;2022-10-01T08:56:49;99265.84;;;18.99;94.08
24620;BME280;12763;55.802;37.404;2022-10-01T08:59:43;99254.06;;;19.17;93.53
24620;BME280;12763;55.802;37.404;2022-10-01T09:02:19;99260.78;;;19.26;93.15
24620;BME280;12763;55.802;37.404;2022-10-01T09:04:50;99259.91;;;19.30;92.61
24620;BME280;12763;55.802;37.404;2022-10-01T09:10:34;99258.81;;;19.31;91.68
24620;BME280;12763;55.802;37.404;2022-10-01T09:16:02;99249.06;;;19.19;92.22
24620;BME280;12763;55.802;37.404;2022-10-01T09:21:13;99250.47;;;18.91;92.55
24620;BME280;12763;55.802;37.404;2022-10-01T09:24:05;99240.69;;;18.89;92.60
24620;BME280;12763;55.802;37.404;2022-10-01T09:26:35;99233.97;;;18.80;92.88
24620;BME280;12763;55.802;37.404;2022-10-01T09:29:14;99236.75;;;18.90;93.08
24620;BME280;12763;55.802;37.404;2022-10-01T09:31:45;99231.16;;;19.05;92.75
24620;BME280;12763;55.802;37.404;2022-10-01T09:34:15;99221.91;;;19.14;92.45
24620;BME280;12763;55.802;37.404;2022-10-01T09:42:41;99223.06;;;18.93;92.77
24620;BME280;12763;55.802;37.404;2022-10-01T09:45:11;99219.44;;;18.88;93.06
24620;BME280;12763;55.802;37.404;2022-10-01T09:47:47;99221.66;;;18.91;93.09
24620;BME280;12763;55.802;37.404;2022-10-01T09:50:52;99209.38;;;18.97;93.04
24620;BME280;12763;55.802;37.404;2022-10-01T09:53:19;99211.06;;;18.83;93.73
24620;BME280;12763;55.802;37.404;2022-10-01T09:55:52;99203.78;;;18.82;93.73
24620;BME280;12763;55.802;37.404;2022-10-01T09:58:23;99209.38;;;18.66;94.77
24620;BME280;12763;55.802;37.404;2022-10-01T10:00:52;99200.97;;;18.56;95.29
24620;BME280;12763;55.802;37.404;2022-10-01T10:03:25;99204.31;;;18.48;95.51
24620;BME280;12763;55.802;37.404;2022-10-01T10:05:53;99204.84;;;18.45;95.45
24620;BME280;12763;55.802;37.404;2022-10-01T10:08:29;99200.38;;;18.44;95.74
24620;BME280;12763;55.802;37.404;2022-10-01T10:11:02;99195.34;;;18.46;95.96
24620;BME280;12763;55.802;37.404;2022-10-01T10:13:47;99194.78;;;18.34;96.74
24620;BME280;12763;55.802;37.404;2022-10-01T10:16:25;99189.75;;;18.26;96.84
24620;BME280;12763;55.802;37.404;2022-10-01T10:21:30;99184.97;;;18.11;97.84
24620;BME280;12763;55.802;37.404;2022-10-01T10:24:17;99181.34;;;18.21;97.69
24620;BME280;12763;55.802;37.404;2022-10-01T10:26:55;99178.00;;;18.19;97.91
24620;BME280;12763;55.802;37.404;2022-10-01T10:29:36;99175.78;;;18.16;98.26
24620;BME280;12763;55.802;37.404;2022-10-01T10:32:15;99169.03;;;18.12;98.79
24620;BME280;12763;55.802;37.404;2022-10-01T10:34:47;99163.19;;;18.13;98.67
24620;BME280;12763;55.802;37.404;2022-10-01T10:37:20;99161.25;;;18.19;98.96
24620;BME280;12763;55.802;37.404;2022-10-01T10:39:49;99153.72;;;18.25;99.05
24620;BME280;12763;55.802;37.404;2022-10-01T10:42:17;99167.09;;;18.17;99.36
24620;BME280;12763;55.802;37.404;2022-10-01T10:44:49;99160.97;;;18.15;99.86
24620;BME280;12763;55.802;37.404;2022-10-01T10:47:18;99153.97;;;18.18;99.89
24620;BME280;12763;55.802;37.404;2022-10-01T10:50:04;99152.31;;;18.27;99.49
24620;BME280;12763;55.802;37.404;2022-10-01T10:52:35;99147.03;;;18.31;99.17
24620;BME280;12763;55.802;37.404;2022-10-01T10:55:21;99145.63;;;18.28;99.84
24620;BME280;12763;55.802;37.404;2022-10-01T10:57:48;99147.00;;;18.15;100.00
24620;BME280;12763;55.802;37.404;2022-10-01T11:00:18;99139.75;;;18.25;100.00
24620;BME280;12763;55.802;37.404;2022-10-01T11:02:58;99135.88;;;18.31;100.00
24620;BME280;12763;55.802;37.404;2022-10-01T11:05:27;99131.09;;;18.26;100.00
24620;BME280;12763;55.802;37.404;2022-10-01T11:08:02;99135.00;;;18.35;100.00
24620;BME280;12763;55.802;37.404;2022-10-01T11:18:50;99130.00;;;18.47;100.00
24620;BME280;12763;55.802;37.404;2022-10-01T11:30:09;99119.69;;;18.53;100.00
24620;BME280;12763;55.802;37.404;2022-10-01T11:32:45;99109.59;;;18.47;100.00
24620;BME280;12763;55.802;37.404;2022-10-01T11:40:48;99104.28;;;18.40;100.00
24620;BME280;12763;55.802;37.404;2022-10-01T11:46:08;99102.06;;;18.47;100.00
24620;BME280;12763;55.802;37.404;2022-10-01T11:48:40;99107.66;;;18.47;100.00
24620;BME280;12763;55.802;37.404;2022-10-01T11:51:15;99100.94;;;18.53;100.00
24620;BME280;12763;55.802;37.404;2022-10-01T11:53:57;99089.78;;;18.53;100.00
24620;BME280;12763;55.802;37.404;2022-10-01T11:56:32;99093.69;;;18.62;100.00
24620;BME280;12763;55.802;37.404;2022-10-01T11:59:23;99086.13;;;18.73;100.00
24620;BME280;12763;55.802;37.404;2022-10-01T12:10:39;99086.13;;;18.38;100.00
24620;BME280;12763;55.802;37.404;2022-10-01T12:13:29;99082.78;;;18.36;100.00
24620;BME280;12763;55.802;37.404;2022-10-01T12:21:11;99070.22;;;18.38;100.00
24620;BME280;12763;55.802;37.404;2022-10-01T12:23:49;99061.84;;;18.63;100.00
24620;BME280;12763;55.802;37.404;2022-10-01T12:26:44;99038.91;;;18.66;100.00
24620;BME280;12763;55.802;37.404;2022-10-01T12:32:11;99033.69;;;19.14;98.40
24620;BME280;12763;55.802;37.404;2022-10-01T12:35:17;99037.66;;;19.03;98.09
24620;BME280;12763;55.802;37.404;2022-10-01T12:37:56;99034.88;;;19.03;97.74
24620;BME280;12763;55.802;37.404;2022-10-01T12:40:57;99037.19;;;18.75;97.59
24620;BME280;12763;55.802;37.404;2022-10-01T12:43:36;99025.44;;;18.84;97.26
24620;BME280;12763;55.802;37.404;2022-10-01T12:57:25;99033.81;;;18.94;95.55
24620;BME280;12763;55.802;37.404;2022-10-01T13:03:07;99031.59;;;18.75;95.64
24620;BME280;12763;55.802;37.404;2022-10-01T13:14:06;99012.06;;;18.70;95.49
24620;BME280;12763;55.802;37.404;2022-10-01T13:19:29;99007.00;;;18.83;95.82
24620;BME280;12763;55.802;37.404;2022-10-01T13:22:33;99004.16;;;18.93;95.73
24620;BME280;12763;55.802;37.404;2022-10-01T13:27:56;98994.09;;;18.97;95.99
24620;BME280;12763;55.802;37.404;2022-10-01T13:31:12;98994.66;;;18.94;95.81
24620;BME280;12763;55.802;37.404;2022-10-01T13:33:23;98992.41;;;18.96;95.89
24620;BME280;12763;55.802;37.404;2022-10-01T13:35:56;99002.81;;;18.85;96.52
24620;BME280;12763;55.802;37.404;2022-10-01T13:38:32;98996.94;;;18.82;96.40
24620;BME280;12763;55.802;37.404;2022-10-01T13:41:18;98993.66;;;18.69;96.82
24620;BME280;12763;55.802;37.404;2022-10-01T13:43:56;98990.56;;;18.71;96.83
24620;BME280;12763;55.802;37.404;2022-10-01T13:46:28;99004.81;;;18.64;97.12
24620;BME280;12763;55.802;37.404;2022-10-01T13:49:03;99012.94;;;18.66;96.71
24620;BME280;12763;55.802;37.404;2022-10-01T13:51:36;99006.22;;;18.72;96.40
24620;BME280;12763;55.802;37.404;2022-10-01T13:54:07;98999.81;;;18.66;96.76
24620;BME280;12763;55.802;37.404;2022-10-01T13:56:37;98997.84;;;18.57;97.01
24620;BME280;12763;55.802;37.404;2022-10-01T13:59:18;98999.81;;;18.56;97.06
24620;BME280;12763;55.802;37.404;2022-10-01T14:01:50;98997.03;;;18.46;97.41
24620;BME280;12763;55.802;37.404;2022-10-01T14:04:31;98993.66;;;18.59;97.27
24620;BME280;12763;55.802;37.404;2022-10-01T14:07:03;99000.13;;;18.50;97.76
24620;BME280;12763;55.802;37.404;2022-10-01T14:09:43;98984.72;;;18.57;97.59
24620;BME280;12763;55.802;37.404;2022-10-01T14:16:00;98982.50;;;18.44;98.14
24620;BME280;12763;55.802;37.404;2022-10-01T14:18:35;98976.91;;;18.54;97.58
24620;BME280;12763;55.802;37.404;2022-10-01T14:21:31;98972.44;;;18.63;97.17
24620;BME280;12763;55.802;37.404;2022-10-01T14:27:24;98946.13;;;18.64;96.89
24620;BME280;12763;55.802;37.404;2022-10-01T14:30:09;98943.34;;;18.64;97.14
24620;BME280;12763;55.802;37.404;2022-10-01T14:38:13;98945.56;;;18.67;96.79
24620;BME280;12763;55.802;37.404;2022-10-01T14:40:42;98935.53;;;18.61;97.28
24620;BME280;12763;55.802;37.404;2022-10-01T14:43:24;98937.75;;;18.64;97.34
24620;BME280;12763;55.802;37.404;2022-10-01T14:46:02;98936.94;;;18.59;97.52
24620;BME280;12763;55.802;37.404;2022-10-01T14:48:31;98927.75;;;18.53;97.83
24620;BME280;12763;55.802;37.404;2022-10-01T14:51:01;98928.88;;;18.52;97.80
24620;BME280;12763;55.802;37.404;2022-10-01T14:53:32;98924.13;;;18.53;97.94
24620;BME280;12763;55.802;37.404;2022-10-01T14:56:04;98927.75;;;18.53;98.07
24620;BME280;12763;55.802;37.404;2022-10-01T14:58:38;98911.81;;;18.54;97.86
24620;BME280;12763;55.802;37.404;2022-10-01T15:01:12;98918.81;;;18.51;97.78
24620;BME280;12763;55.802;37.404;2022-10-01T15:03:42;98918.81;;;18.51;97.93
24620;BME280;12763;55.802;37.404;2022-10-01T15:06:27;98910.72;;;18.55;98.49
24620;BME280;12763;55.802;37.404;2022-10-01T15:09:04;98914.91;;;18.47;98.75
24620;BME280;12763;55.802;37.404;2022-10-01T15:11:33;98902.31;;;18.45;98.45
24620;BME280;12763;55.802;37.404;2022-10-01T15:14:06;98906.53;;;18.47;98.50